Time;durP1;ratioP1;P1;durP2;ratioP2;P2;SDS_P1;SDS_P2;PMS_P1;PMS_P2;Temp;Humidity;BMP_temperature;BMP_pressure;BME280_temperature;BME280_humidity;BME280_pressure;Samples;Min_cycle;Max_cycle;Signal;HPM_P1;HPM_P2
2021/06/19 00:00:17;;;;;;;7.43;2.38;;;;;;;12.71;60.98;101074.50;4915587;29;20393;-39
2021/06/19 00:02:45;;;;;;;8.60;5.70;;;;;;;12.74;61.04;101073.81;4914965;29;20040;-38
2021/06/19 00:05:13;;;;;;;9.32;5.88;;;;;;;12.71;61.22;101082.03;4915880;29;20048;-39
2021/06/19 00:07:40;;;;;;;9.32;4.57;;;;;;;12.72;61.33;101081.69;4914343;29;20108;-39
2021/06/19 00:10:09;;;;;;;7.95;4.47;;;;;;;12.73;61.67;101072.16;4914984;29;20080;-39
2021/06/19 00:12:37;;;;;;;5.75;4.03;;;;;;;12.75;61.59;101078.22;4914013;29;20529;-39
2021/06/19 00:15:09;;;;;;;10.27;3.75;;;;;;;12.70;62.10;101077.63;4914815;29;20469;-39
2021/06/19 00:17:37;;;;;;;9.98;4.65;;;;;;;12.63;62.38;101080.19;4915186;29;20051;-39
2021/06/19 00:20:06;;;;;;;7.57;3.15;;;;;;;12.59;62.62;101088.44;4914624;29;20130;-39
2021/06/19 00:22:34;;;;;;;8.65;3.85;;;;;;;12.58;62.37;101083.22;4915304;29;20502;-39
2021/06/19 00:25:00;;;;;;;6.95;3.65;;;;;;;12.61;62.39;101075.00;4897836;29;20107;-39
2021/06/19 00:27:27;;;;;;;6.25;2.50;;;;;;;12.63;62.56;101074.63;4900214;29;20044;-41
2021/06/19 00:29:54;;;;;;;8.38;3.03;;;;;;;12.67;62.38;101081.13;4914516;29;20118;-39
2021/06/19 00:32:21;;;;;;;10.38;3.47;;;;;;;12.55;62.69;101081.16;4915025;29;20486;-39
2021/06/19 00:34:50;;;;;;;13.80;3.92;;;;;;;12.46;62.94;101072.94;4914922;29;20068;-38
2021/06/19 00:37:17;;;;;;;7.28;3.70;;;;;;;12.38;63.28;101076.66;4901826;29;20135;-39
2021/06/19 00:39:43;;;;;;;9.93;4.75;;;;;;;12.33;63.47;101068.56;4922707;29;20123;-38
2021/06/19 00:42:10;;;;;;;11.43;5.38;;;;;;;12.29;63.75;101066.81;4915966;29;20070;-38
2021/06/19 00:44:38;;;;;;;12.57;5.78;;;;;;;12.23;63.81;101057.94;4914477;29;20144;-39
2021/06/19 00:47:05;;;;;;;9.23;3.85;;;;;;;12.19;64.00;101048.69;4914861;29;20071;-39
2021/06/19 00:49:32;;;;;;;13.65;3.83;;;;;;;12.16;64.07;101055.75;4914176;29;20107;-39
2021/06/19 00:51:59;;;;;;;6.47;3.47;;;;;;;12.13;64.23;101052.84;4914548;29;20052;-39
2021/06/19 00:54:27;;;;;;;7.97;3.28;;;;;;;12.14;64.25;101048.94;4914772;29;20458;-39
2021/06/19 00:56:54;;;;;;;6.35;3.33;;;;;;;12.19;64.20;101043.13;4915107;29;20112;-43
2021/06/19 00:59:21;;;;;;;6.97;3.20;;;;;;;12.23;63.89;101038.53;4912888;29;20051;-39
2021/06/19 01:01:49;;;;;;;7.13;3.00;;;;;;;12.19;64.00;101040.34;4902148;29;20048;-38
2021/06/19 01:04:16;;;;;;;8.27;3.85;;;;;;;12.16;63.93;101029.94;4914102;29;20494;-39
2021/06/19 01:06:44;;;;;;;7.90;3.75;;;;;;;12.08;64.43;101028.09;4899985;29;20502;-39
2021/06/19 01:09:11;;;;;;;6.38;3.67;;;;;;;12.03;64.50;101031.94;4914152;29;20044;-39
2021/06/19 01:11:39;;;;;;;7.20;2.90;;;;;;;11.99;64.41;101028.22;4914604;29;20132;-39
2021/06/19 01:14:07;;;;;;;8.85;2.85;;;;;;;11.96;64.84;101028.13;4925530;29;20142;-38
2021/06/19 01:16:35;;;;;;;7.10;3.00;;;;;;;11.95;64.73;101027.31;4916816;29;20076;-39
2021/06/19 01:19:03;;;;;;;7.63;2.65;;;;;;;11.95;64.85;101029.28;4913767;29;20048;-41
2021/06/19 01:21:30;;;;;;;4.95;3.10;;;;;;;11.95;64.86;101029.28;4913969;29;20086;-39
2021/06/19 01:23:59;;;;;;;6.60;3.00;;;;;;;11.91;65.25;101028.38;4916495;29;20136;-38
2021/06/19 01:26:28;;;;;;;4.93;2.72;;;;;;;11.86;65.24;101020.28;4917979;29;20135;-39
2021/06/19 01:28:56;;;;;;;8.02;2.90;;;;;;;11.89;65.58;101030.66;4917697;29;20398;-38
2021/06/19 01:31:25;;;;;;;9.07;3.90;;;;;;;11.87;65.32;101024.66;4918097;29;20047;-39
2021/06/19 01:33:52;;;;;;;6.88;3.63;;;;;;;11.84;65.48;101025.34;4918064;29;20502;-39
2021/06/19 01:36:23;;;;;;;7.65;2.80;;;;;;;11.83;65.76;101020.97;4917881;29;20122;-39
2021/06/19 01:38:53;;;;;;;6.60;2.97;;;;;;;11.82;65.67;101022.09;4917388;29;20103;-39
2021/06/19 01:41:26;;;;;;;8.05;2.85;;;;;;;11.75;65.93;101014.38;4916690;29;20131;-38
2021/06/19 01:43:57;;;;;;;6.07;3.05;;;;;;;11.70;65.96;101016.56;4917538;29;20177;-39
2021/06/19 01:46:24;;;;;;;4.40;2.67;;;;;;;11.71;65.73;101023.72;4917787;29;20099;-39
2021/06/19 01:48:51;;;;;;;5.07;2.80;;;;;;;11.69;65.84;101018.53;4917299;29;20462;-39
2021/06/19 01:51:18;;;;;;;7.25;3.45;;;;;;;11.69;65.72;101020.50;4911773;29;20525;-38
2021/06/19 01:53:49;;;;;;;5.45;2.58;;;;;;;11.69;65.67;101020.50;4917443;29;20375;-39
2021/06/19 01:56:18;;;;;;;8.65;4.10;;;;;;;11.67;65.81;101028.31;4916977;29;20525;-39
2021/06/19 01:58:49;;;;;;;8.68;3.30;;;;;;;11.68;65.64;101021.59;4915642;29;20485;-38
2021/06/19 02:01:17;;;;;;;6.65;3.10;;;;;;;11.65;65.66;101017.56;4903204;29;20087;-38
2021/06/19 02:03:46;;;;;;;5.20;3.10;;;;;;;11.60;65.78;101024.16;4917357;29;20052;-39
2021/06/19 02:06:13;;;;;;;6.85;3.33;;;;;;;11.64;65.68;101027.06;4913584;29;20143;-39
2021/06/19 02:08:41;;;;;;;7.80;3.83;;;;;;;11.62;65.54;101019.06;4915427;29;20050;-38
2021/06/19 02:11:08;;;;;;;6.07;3.00;;;;;;;11.70;65.35;101022.13;4917389;29;20054;-39
2021/06/19 02:13:36;;;;;;;5.85;2.95;;;;;;;11.64;65.49;101024.28;4917274;29;20521;-39
2021/06/19 02:16:04;;;;;;;4.95;3.30;;;;;;;11.65;65.31;101014.78;4916939;29;20100;-39
2021/06/19 02:18:32;;;;;;;6.68;3.47;;;;;;;11.58;65.49;101014.56;4916611;29;20044;-38
2021/06/19 02:20:58;;;;;;;13.95;5.07;;;;;;;11.52;65.71;101005.66;4918929;29;20079;-38
2021/06/19 02:23:26;;;;;;;9.88;3.92;;;;;;;11.49;65.72;101013.88;4932455;29;20048;-39
2021/06/19 02:25:54;;;;;;;11.93;3.60;;;;;;;11.47;65.79;101014.19;4917044;29;20546;-39
2021/06/19 02:28:25;;;;;;;5.63;3.58;;;;;;;11.46;66.01;101009.78;4916472;29;20566;-39
2021/06/19 02:31:06;;;;;;;8.30;4.15;;;;;;;11.47;65.81;101008.66;4916453;29;20557;-38
2021/06/19 02:33:34;;;;;;;8.00;3.72;;;;;;;11.45;65.78;101005.44;4905867;29;20044;-39
2021/06/19 02:36:02;;;;;;;9.57;4.13;;;;;;;11.43;65.99;101002.19;4915981;29;20060;-39
2021/06/19 02:38:29;;;;;;;14.27;4.70;;;;;;;11.39;65.93;101003.19;4888039;29;20131;-39
2021/06/19 02:40:56;;;;;;;11.10;4.50;;;;;;;11.35;66.11;101005.88;4916216;29;20051;-39
2021/06/19 02:43:23;;;;;;;7.90;5.22;;;;;;;11.38;66.12;101002.41;4916412;29;20151;-39
2021/06/19 02:45:50;;;;;;;10.07;5.15;;;;;;;11.44;65.77;101009.34;4916014;29;20083;-38
2021/06/19 02:48:17;;;;;;;11.80;4.45;;;;;;;11.43;65.91;101001.38;4916452;29;20056;-39
2021/06/19 02:50:48;;;;;;;8.03;4.50;;;;;;;11.39;65.95;101000.44;4916005;29;20048;-39
2021/06/19 02:53:15;;;;;;;9.00;5.20;;;;;;;11.39;65.95;100992.94;4916525;29;20051;-39
2021/06/19 02:55:43;;;;;;;8.55;3.55;;;;;;;11.36;66.11;100995.56;4916488;29;20082;-38
2021/06/19 02:58:12;;;;;;;11.82;4.53;;;;;;;11.36;66.21;100985.31;4901471;29;20597;-38
2021/06/19 03:00:41;;;;;;;11.27;4.30;;;;;;;11.34;66.12;100979.31;4905703;29;20048;-39
2021/06/19 03:03:08;;;;;;;16.90;4.53;;;;;;;11.34;66.32;100976.53;4915868;29;20075;-39
2021/06/19 03:05:37;;;;;;;7.55;3.75;;;;;;;11.34;66.21;100975.72;4915678;29;20074;-39
2021/06/19 03:08:05;;;;;;;6.35;4.35;;;;;;;11.37;66.11;100984.16;4915277;29;20068;-39
2021/06/19 03:10:41;;;;;;;12.90;5.38;;;;;;;11.32;66.34;100978.84;4916163;29;20099;-39
2021/06/19 03:13:08;;;;;;;8.70;4.68;;;;;;;11.32;66.18;100980.78;4923823;29;20111;-39
2021/06/19 03:15:35;;;;;;;11.02;5.53;;;;;;;11.35;66.14;100974.56;4916078;29;20048;-39
2021/06/19 03:18:02;;;;;;;10.07;4.88;;;;;;;11.31;66.05;100982.75;4915226;29;20079;-38
2021/06/19 03:20:29;;;;;;;14.55;5.65;;;;;;;11.26;66.30;100979.41;4915608;29;20048;-39
2021/06/19 03:22:59;;;;;;;12.10;5.70;;;;;;;11.21;66.48;100982.38;4915767;29;20052;-38
2021/06/19 03:25:37;;;;;;;13.43;6.38;;;;;;;11.14;66.81;100966.34;4915368;29;20040;-38
2021/06/19 03:28:05;;;;;;;10.82;4.93;;;;;;;11.12;66.58;100963.09;4915225;29;20052;-39
2021/06/19 03:30:34;;;;;;;8.82;4.15;;;;;;;11.10;66.73;100967.34;4924067;29;20063;-38
2021/06/19 03:33:01;;;;;;;14.85;4.60;;;;;;;11.14;66.49;100971.88;4915889;29;20087;-43
2021/06/19 03:35:28;;;;;;;11.50;4.68;;;;;;;11.13;66.20;100966.66;4915576;29;20043;-38
2021/06/19 03:37:56;;;;;;;9.43;4.20;;;;;;;11.13;66.62;100964.72;4915796;29;20055;-39
2021/06/19 03:40:28;;;;;;;11.85;5.00;;;;;;;11.13;66.45;100981.34;4915487;29;20072;-38
2021/06/19 03:42:55;;;;;;;8.82;5.38;;;;;;;11.12;66.41;100976.94;4915602;29;20052;-39
2021/06/19 03:45:24;;;;;;;7.43;4.78;;;;;;;11.11;66.07;100966.22;4925547;29;20062;-39
2021/06/19 03:47:53;;;;;;;10.35;4.35;;;;;;;11.08;66.51;100969.66;4923278;29;20502;-39
2021/06/19 03:50:22;;;;;;;13.35;4.60;;;;;;;11.04;66.59;100975.06;4914729;29;20095;-39
2021/06/19 03:52:53;;;;;;;9.70;5.38;;;;;;;11.06;66.64;100980.28;4915278;29;20048;-38
2021/06/19 03:55:20;;;;;;;10.90;4.55;;;;;;;11.06;66.67;100975.56;4915575;29;20056;-38
2021/06/19 03:57:47;;;;;;;9.52;7.20;;;;;;;11.07;66.55;100971.63;4914636;29;20059;-38
2021/06/19 04:00:17;;;;;;;8.48;4.95;;;;;;;11.11;66.69;100972.56;4911791;29;20049;-38
2021/06/19 04:02:45;;;;;;;9.02;5.00;;;;;;;11.18;66.58;100972.81;4913876;29;20095;-40
2021/06/19 04:05:13;;;;;;;12.32;4.68;;;;;;;11.26;66.39;100968.31;4907380;29;20225;-39
2021/06/19 04:07:40;;;;;;;12.60;5.05;;;;;;;11.29;66.38;100967.63;4914883;29;20136;-39
2021/06/19 04:10:09;;;;;;;10.00;4.53;;;;;;;11.29;66.29;100973.97;4915104;29;20087;-39
2021/06/19 04:12:37;;;;;;;10.68;5.45;;;;;;;11.33;66.43;100961.03;4894915;29;20056;-38
2021/06/19 04:15:06;;;;;;;9.77;4.60;;;;;;;11.35;66.05;100961.53;4914353;29;20052;-39
2021/06/19 04:17:33;;;;;;;9.35;4.55;;;;;;;11.38;66.36;100960.84;4915026;29;20127;-39
2021/06/19 04:20:00;;;;;;;12.05;5.13;;;;;;;11.49;66.01;100959.19;4916191;29;20059;-38
2021/06/19 04:22:26;;;;;;;13.20;5.60;;;;;;;11.58;66.04;100970.19;4924551;29;20570;-38
2021/06/19 04:24:53;;;;;;;8.88;5.18;;;;;;;11.56;66.24;100967.78;4905693;29;20092;-39
2021/06/19 04:27:21;;;;;;;12.20;5.22;;;;;;;11.57;66.31;100958.28;4914798;29;20044;-39
2021/06/19 04:29:48;;;;;;;7.82;4.57;;;;;;;11.66;66.38;100963.72;4914685;29;20048;-39
2021/06/19 04:32:16;;;;;;;8.55;4.40;;;;;;;11.73;66.13;100950.09;4914927;29;20048;-39
2021/06/19 04:34:43;;;;;;;9.15;5.00;;;;;;;11.81;65.94;100959.47;4914790;29;20036;-39
2021/06/19 04:37:12;;;;;;;8.32;5.03;;;;;;;11.84;65.92;100948.47;4917825;29;20050;-39
2021/06/19 04:39:48;;;;;;;7.88;4.25;;;;;;;11.90;65.88;100949.06;4923308;29;20395;-39
2021/06/19 04:42:18;;;;;;;7.68;4.93;;;;;;;11.89;66.04;100941.88;4915004;29;20394;-38
2021/06/19 04:47:24;;;;;;;8.15;5.30;;;;;;;11.95;66.13;100941.31;4914800;29;20048;-38
2021/06/19 04:49:53;;;;;;;8.50;5.15;;;;;;;12.03;66.02;100947.88;4914114;29;20084;-39
2021/06/19 04:52:21;;;;;;;7.97;5.15;;;;;;;12.07;65.94;100946.03;4914555;29;20092;-43
2021/06/19 04:54:49;;;;;;;10.63;4.22;;;;;;;12.14;65.59;100937.91;4914938;29;20537;-39
2021/06/19 04:57:16;;;;;;;15.32;5.35;;;;;;;12.19;65.74;100940.44;4913974;29;20043;-39
2021/06/19 04:59:42;;;;;;;8.48;4.43;;;;;;;12.17;65.73;100931.66;4930805;29;20082;-39
2021/06/19 05:02:10;;;;;;;9.00;4.30;;;;;;;12.22;65.99;100936.97;4918458;29;20123;-38
2021/06/19 05:04:36;;;;;;;11.48;5.28;;;;;;;12.19;66.00;100935.69;4917527;29;20453;-39
2021/06/19 05:07:03;;;;;;;12.68;5.38;;;;;;;12.23;66.10;100935.00;4918606;29;20529;-38
2021/06/19 05:09:30;;;;;;;10.10;5.07;;;;;;;12.30;65.81;100924.09;4917907;29;20443;-38
2021/06/19 05:11:57;;;;;;;9.65;5.60;;;;;;;12.29;66.00;100922.47;4920651;29;20048;-39
2021/06/19 05:14:24;;;;;;;9.13;4.32;;;;;;;12.31;65.87;100920.16;4918357;29;20135;-38
2021/06/19 05:16:51;;;;;;;11.57;5.15;;;;;;;12.29;65.78;100917.72;4918294;29;20505;-38
2021/06/19 05:19:19;;;;;;;6.78;4.90;;;;;;;12.31;65.85;100915.41;4917524;29;20095;-40
2021/06/19 05:21:46;;;;;;;8.77;5.03;;;;;;;12.34;65.94;100909.16;4917442;29;20046;-39
2021/06/19 05:24:13;;;;;;;10.65;5.45;;;;;;;12.37;65.60;100908.44;4918018;29;20561;-39
2021/06/19 05:26:41;;;;;;;9.23;5.15;;;;;;;12.40;65.16;100904.97;4916371;29;20071;-39
2021/06/19 05:29:08;;;;;;;8.95;5.60;;;;;;;12.43;65.34;100900.66;4918438;29;20058;-39
2021/06/19 05:31:34;;;;;;;7.43;4.53;;;;;;;12.43;65.52;100904.25;4917678;29;20504;-38
2021/06/19 05:34:01;;;;;;;8.30;4.57;;;;;;;12.46;65.50;100911.06;4916838;29;20091;-39
2021/06/19 05:36:28;;;;;;;5.93;3.63;;;;;;;12.48;65.58;100901.22;4917724;29;20048;-39
2021/06/19 05:38:55;;;;;;;10.27;5.28;;;;;;;12.53;65.43;100909.31;4917712;29;20405;-39
2021/06/19 05:41:22;;;;;;;7.95;5.32;;;;;;;12.59;65.51;100909.84;4912481;29;20079;-39
2021/06/19 05:43:49;;;;;;;9.30;4.18;;;;;;;12.67;65.50;100901.38;4912359;29;20147;-39
2021/06/19 05:46:16;;;;;;;9.82;4.45;;;;;;;12.72;65.41;100898.34;4918009;29;20071;-39
2021/06/19 05:48:44;;;;;;;11.40;3.70;;;;;;;12.81;65.22;100896.19;4917531;29;20127;-39
2021/06/19 05:51:10;;;;;;;6.57;3.47;;;;;;;12.88;65.02;100894.75;4917540;29;20059;-39
2021/06/19 05:53:37;;;;;;;14.73;4.70;;;;;;;12.93;64.70;100903.63;4912795;29;20044;-39
2021/06/19 05:56:04;;;;;;;7.68;4.22;;;;;;;12.96;64.63;100907.69;4896472;29;20511;-39
2021/06/19 05:58:31;;;;;;;5.60;4.40;;;;;;;13.00;64.26;100912.16;4917135;29;20397;-39
2021/06/19 06:00:58;;;;;;;8.80;3.50;;;;;;;13.05;64.35;100914.66;4917017;29;20134;-43
2021/06/19 06:03:25;;;;;;;8.88;4.53;;;;;;;13.08;64.44;100911.22;4923544;29;20491;-39
2021/06/19 06:05:52;;;;;;;7.68;4.38;;;;;;;13.12;64.53;100903.78;4916981;29;20565;-39
2021/06/19 06:08:19;;;;;;;6.07;3.30;;;;;;;13.16;64.41;100901.06;4917041;29;20127;-39
2021/06/19 06:10:45;;;;;;;7.40;3.42;;;;;;;13.24;64.35;100902.88;4916596;29;20052;-39
2021/06/19 06:13:12;;;;;;;8.60;3.83;;;;;;;13.35;64.56;100903.94;4917018;29;20119;-39
2021/06/19 06:15:40;;;;;;;6.93;3.42;;;;;;;13.42;64.45;100887.44;4913781;29;20055;-39
2021/06/19 06:18:09;;;;;;;10.23;3.80;;;;;;;13.54;64.26;100890.09;4917218;29;20677;-39
2021/06/19 06:20:36;;;;;;;8.00;5.13;;;;;;;13.65;64.11;100891.16;4923150;29;20047;-39
2021/06/19 06:23:07;;;;;;;7.57;4.20;;;;;;;13.68;64.24;100884.88;4906130;29;20068;-39
2021/06/19 06:25:34;;;;;;;10.18;4.78;;;;;;;13.75;63.96;100889.78;4913611;29;20368;-39
2021/06/19 06:28:01;;;;;;;5.18;3.13;;;;;;;13.81;63.89;100889.16;4916691;29;20091;-39
2021/06/19 06:30:28;;;;;;;5.55;3.05;;;;;;;13.88;63.76;100900.44;4916941;29;20103;-39
2021/06/19 06:32:55;;;;;;;4.45;2.90;;;;;;;13.90;63.62;100886.16;4907913;29;20466;-40
2021/06/19 06:35:21;;;;;;;9.02;3.67;;;;;;;13.91;63.30;100888.59;4916550;29;20485;-41
2021/06/19 06:37:48;;;;;;;7.50;3.30;;;;;;;13.91;63.13;100885.81;4917271;29;20045;-39
2021/06/19 06:40:15;;;;;;;7.45;2.95;;;;;;;13.94;63.26;100892.63;4899524;29;20051;-39
2021/06/19 06:42:43;;;;;;;4.38;3.20;;;;;;;13.98;63.31;100897.09;4916516;29;20406;-39
2021/06/19 06:45:14;;;;;;;8.75;3.45;;;;;;;14.03;63.37;100902.34;4916385;29;20055;-39
2021/06/19 06:47:48;;;;;;;4.45;2.72;;;;;;;14.09;63.31;100896.50;4916389;29;20043;-39
2021/06/19 06:50:16;;;;;;;7.82;3.10;;;;;;;14.13;63.17;100894.63;4916803;29;20060;-39
2021/06/19 06:52:44;;;;;;;7.18;3.22;;;;;;;14.19;63.27;100888.38;4916613;29;20111;-39
2021/06/19 06:55:12;;;;;;;5.85;2.50;;;;;;;14.28;63.32;100902.91;4915543;29;20131;-39
2021/06/19 06:57:40;;;;;;;6.25;2.92;;;;;;;14.34;63.10;100907.03;4916462;29;20111;-39
2021/06/19 07:00:08;;;;;;;7.53;3.28;;;;;;;14.34;63.33;100911.81;4916332;29;20044;-40
2021/06/19 07:02:39;;;;;;;5.45;2.42;;;;;;;14.33;63.25;100902.63;4916618;29;20052;-39
2021/06/19 07:05:08;;;;;;;6.43;2.90;;;;;;;14.38;63.22;100904.31;4915169;29;20391;-39
2021/06/19 07:07:36;;;;;;;7.40;2.55;;;;;;;14.42;63.32;100903.22;4916494;29;20133;-39
2021/06/19 07:10:08;;;;;;;9.07;3.38;;;;;;;14.50;63.38;100912.53;4918528;29;20044;-39
2021/06/19 07:12:36;;;;;;;7.22;2.25;;;;;;;14.53;63.12;100909.00;4922908;29;20079;-39
2021/06/19 07:15:04;;;;;;;3.60;2.30;;;;;;;14.60;63.15;100909.97;4915948;29;20040;-39
2021/06/19 07:17:31;;;;;;;8.07;2.50;;;;;;;14.70;63.21;100918.88;4915622;29;20130;-38
2021/06/19 07:19:58;;;;;;;5.53;2.42;;;;;;;14.80;63.17;100905.16;4915484;29;20079;-39
2021/06/19 07:22:25;;;;;;;6.20;2.83;;;;;;;14.85;62.87;100910.41;4901634;29;20053;-39
2021/06/19 07:24:52;;;;;;;3.83;2.00;;;;;;;14.89;63.01;100911.31;4911199;29;20046;-39
2021/06/19 07:27:18;;;;;;;5.97;2.00;;;;;;;14.87;62.73;100905.28;4920808;29;20136;-41
2021/06/19 07:29:45;;;;;;;8.40;2.08;;;;;;;14.85;62.50;100904.84;4921186;29;20052;-39
2021/06/19 07:32:12;;;;;;;6.38;2.15;;;;;;;14.90;62.37;100904.56;4909271;29;20139;-39
2021/06/19 07:34:39;;;;;;;5.63;2.00;;;;;;;14.91;62.26;100897.78;4915578;29;20048;-39
2021/06/19 07:37:06;;;;;;;9.55;4.00;;;;;;;14.92;62.13;100899.41;4915335;29;20522;-39
2021/06/19 07:39:33;;;;;;;4.90;1.77;;;;;;;15.01;62.06;100897.16;4915365;29;20159;-39
2021/06/19 07:41:59;;;;;;;2.63;1.60;;;;;;;15.10;62.15;100894.94;4915531;29;20051;-40
2021/06/19 07:44:26;;;;;;;10.43;2.28;;;;;;;15.18;61.94;100896.69;4922121;29;20118;-39
2021/06/19 07:46:53;;;;;;;7.63;3.15;;;;;;;15.31;61.69;100896.47;4913561;29;20058;-39
2021/06/19 07:49:20;;;;;;;11.30;3.35;;;;;;;15.41;61.40;100899.44;4901623;29;20414;-40
2021/06/19 07:51:47;;;;;;;7.78;2.55;;;;;;;15.40;61.21;100900.63;4915354;29;20807;-40
2021/06/19 07:54:16;;;;;;;7.43;2.20;;;;;;;15.47;61.39;100913.91;4911565;29;20082;-39
2021/06/19 07:56:43;;;;;;;7.63;1.73;;;;;;;15.56;61.27;100914.47;4898578;29;20060;-39
2021/06/19 07:59:09;;;;;;;8.40;1.73;;;;;;;15.64;60.65;100907.81;4909653;29;20143;-40
2021/06/19 08:01:36;;;;;;;5.95;2.55;;;;;;;15.64;60.52;100907.81;4915424;29;20036;-39
2021/06/19 08:04:03;;;;;;;3.20;1.90;;;;;;;15.72;60.46;100892.78;4915596;29;20608;-40
2021/06/19 08:06:30;;;;;;;3.28;1.65;;;;;;;15.81;60.12;100907.28;4909473;29;20040;-39
2021/06/19 08:09:01;;;;;;;5.22;1.60;;;;;;;15.87;60.21;100899.38;4915375;29;20131;-39
2021/06/19 08:11:28;;;;;;;5.95;2.10;;;;;;;15.88;59.68;100903.78;4915305;29;20155;-39
2021/06/19 08:13:55;;;;;;;4.90;2.55;;;;;;;15.83;59.53;100905.72;4915578;29;20056;-39
2021/06/19 08:16:22;;;;;;;3.25;1.70;;;;;;;15.78;59.28;100908.03;4914856;29;20494;-40
2021/06/19 08:18:49;;;;;;;18.38;2.63;;;;;;;15.83;59.55;100913.31;4915494;29;22323;-40
2021/06/19 08:21:16;;;;;;;8.70;4.28;;;;;;;15.88;59.40;100924.16;4914563;29;20060;-40
2021/06/19 08:23:43;;;;;;;5.75;1.52;;;;;;;15.84;59.36;100914.91;4915398;29;20123;-39
2021/06/19 08:26:10;;;;;;;5.05;1.58;;;;;;;15.81;59.24;100916.47;4915276;29;20094;-40
2021/06/19 08:28:37;;;;;;;6.15;1.48;;;;;;;15.77;59.01;100912.00;4915148;29;20469;-39
2021/06/19 08:31:03;;;;;;;6.78;2.22;;;;;;;15.74;59.24;100907.19;4914902;29;20080;-39
2021/06/19 08:33:31;;;;;;;5.15;1.35;;;;;;;15.76;59.17;100918.75;4916534;29;20117;-39
2021/06/19 08:36:01;;;;;;;6.60;1.55;;;;;;;15.81;59.11;100910.06;4903200;29;20044;-39
2021/06/19 08:38:28;;;;;;;8.85;2.45;;;;;;;15.83;58.97;100913.31;4918628;29;20054;-39
2021/06/19 08:40:55;;;;;;;7.60;2.88;;;;;;;15.92;58.98;100907.41;4918904;29;20095;-41
2021/06/19 08:43:22;;;;;;;5.97;1.60;;;;;;;15.95;58.72;100901.91;4918846;29;20037;-40
2021/06/19 08:45:50;;;;;;;5.00;1.38;;;;;;;16.02;58.39;100904.78;4919011;29;20064;-39
2021/06/19 08:48:19;;;;;;;20.73;4.18;;;;;;;16.08;58.19;100905.25;4918736;29;20052;-39
2021/06/19 08:50:48;;;;;;;7.93;3.63;;;;;;;16.15;58.01;100894.97;4918111;29;20040;-39
2021/06/19 08:53:18;;;;;;;6.60;3.15;;;;;;;16.16;57.61;100895.78;4918968;29;20067;-39
2021/06/19 08:55:46;;;;;;;6.82;3.00;;;;;;;16.12;57.72;100894.97;4901370;29;20480;-40
2021/06/19 08:58:12;;;;;;;6.72;2.10;;;;;;;16.18;57.58;100896.22;4918127;29;20099;-39
2021/06/19 09:00:43;;;;;;;6.85;1.65;;;;;;;16.29;57.37;100899.94;4918135;29;20063;-39
2021/06/19 09:03:24;;;;;;;4.43;1.35;;;;;;;16.31;56.61;100890.00;4918409;29;20048;-40
2021/06/19 09:05:53;;;;;;;7.30;1.40;;;;;;;16.33;57.04;100886.84;4918871;29;20091;-39
2021/06/19 09:08:21;;;;;;;6.10;1.75;;;;;;;16.41;57.21;100889.31;4918397;29;20051;-38
2021/06/19 09:10:47;;;;;;;5.78;1.58;;;;;;;16.50;57.15;100872.25;4922949;29;20076;-40
2021/06/19 09:13:18;;;;;;;19.85;3.95;;;;;;;16.59;57.10;100872.81;4912171;29;20071;-40
2021/06/19 09:15:54;;;;;;;4.90;1.40;;;;;;;16.63;56.56;100867.22;4918490;29;20099;-39
2021/06/19 09:18:25;;;;;;;3.15;1.20;;;;;;;16.65;56.62;100867.69;4918253;29;20397;-39
2021/06/19 09:20:59;;;;;;;8.20;2.33;;;;;;;16.73;56.47;100858.97;4903284;29;20061;-39
2021/06/19 09:23:30;;;;;;;5.03;1.42;;;;;;;16.88;56.15;100863.53;4912992;29;20071;-39
2021/06/19 09:26:18;;;;;;;3.63;1.48;;;;;;;17.02;55.61;100860.06;4918053;29;20052;-39
2021/06/19 09:29:07;;;;;;;6.68;3.10;;;;;;;17.15;55.54;100852.16;4917637;29;20044;-39
2021/06/19 09:31:38;;;;;;;8.50;1.83;;;;;;;17.25;55.90;100846.66;4917381;29;20134;-40
2021/06/19 09:34:26;;;;;;;11.32;3.95;;;;;;;17.37;55.67;100846.34;4917476;29;20040;-40
2021/06/19 09:36:54;;;;;;;4.18;1.80;;;;;;;17.48;55.63;100838.03;4917580;29;20135;-40
2021/06/19 09:39:27;;;;;;;5.88;1.77;;;;;;;17.57;54.93;100836.53;4917365;29;20147;-40
2021/06/19 09:41:59;;;;;;;10.45;2.28;;;;;;;17.73;54.13;100839.03;4917387;29;20040;-40
2021/06/19 09:44:37;;;;;;;4.00;1.42;;;;;;;17.95;53.76;100834.34;4906533;29;20074;-40
2021/06/19 09:47:05;;;;;;;4.60;1.50;;;;;;;18.19;54.07;100842.03;4909089;29;20136;-39
2021/06/19 09:49:39;;;;;;;10.32;2.10;;;;;;;18.54;53.63;100827.34;4901828;29;20048;-40
2021/06/19 09:52:08;;;;;;;5.18;1.67;;;;;;;19.00;52.98;100827.44;4917156;29;20082;-39
2021/06/19 09:54:43;;;;;;;7.57;2.28;;;;;;;19.48;52.15;100825.84;4917080;29;20094;-39
2021/06/19 09:57:18;;;;;;;6.30;1.60;;;;;;;19.74;49.39;100819.75;4896938;29;20529;-40
2021/06/19 09:59:45;;;;;;;3.50;1.50;;;;;;;19.96;49.29;100812.06;4916403;29;20486;-40
2021/06/19 10:02:30;;;;;;;8.45;1.70;;;;;;;20.45;48.17;100799.78;4909082;29;20048;-40
2021/06/19 10:04:57;;;;;;;5.57;1.80;;;;;;;20.77;47.34;100799.59;4916370;29;20052;-40
2021/06/19 10:07:27;;;;;;;4.57;1.80;;;;;;;20.90;46.61;100793.06;4917186;29;20100;-40
2021/06/19 10:09:56;;;;;;;5.00;1.25;;;;;;;21.17;45.80;100791.25;4916771;29;20127;-40
2021/06/19 10:12:29;;;;;;;3.83;1.55;;;;;;;21.30;44.00;100782.28;4927891;29;20094;-40
2021/06/19 10:15:00;;;;;;;4.85;1.45;;;;;;;21.07;44.21;100783.69;4917108;29;20100;-40
2021/06/19 10:17:37;;;;;;;3.78;1.70;;;;;;;20.81;44.17;100777.84;4922131;29;20127;-40
2021/06/19 10:20:13;;;;;;;6.68;1.73;;;;;;;20.49;43.93;100778.09;4917516;29;20701;-39
2021/06/19 10:22:43;;;;;;;5.78;1.70;;;;;;;20.24;44.86;100766.19;4916524;29;20044;-41
2021/06/19 10:25:14;;;;;;;4.18;1.67;;;;;;;20.11;45.08;100777.06;4916720;29;20823;-40
2021/06/19 10:27:49;;;;;;;3.22;1.58;;;;;;;20.13;45.22;100776.63;4916191;29;20442;-40
2021/06/19 10:30:17;;;;;;;5.22;2.20;;;;;;;20.33;45.03;100775.75;4925793;29;20051;-40
2021/06/19 10:33:30;;;;;;;6.38;1.92;;;;;;;20.36;44.33;100774.16;4916848;29;20048;-40
2021/06/19 10:36:04;;;;;;;4.47;2.35;;;;;;;20.40;44.69;100758.03;4918258;29;20040;-46
2021/06/19 10:38:43;;;;;;;4.65;1.40;;;;;;;20.21;44.64;100773.38;4916783;29;20123;-39
2021/06/19 10:41:10;;;;;;;4.38;1.52;;;;;;;20.23;44.40;100770.97;4916554;29;20048;-39
2021/06/19 10:43:45;;;;;;;3.67;1.58;;;;;;;20.43;43.82;100763.66;4916027;29;20159;-40
2021/06/19 10:46:39;;;;;;;8.30;1.80;;;;;;;20.53;42.35;100767.59;4916355;29;20084;-39
2021/06/19 10:49:18;;;;;;;3.67;1.73;;;;;;;20.26;42.22;100741.25;4906512;29;20490;-40
2021/06/19 10:51:46;;;;;;;10.68;2.03;;;;;;;20.10;43.70;100752.16;4924379;29;20130;-39
2021/06/19 10:54:18;;;;;;;4.55;1.45;;;;;;;20.10;43.92;100755.78;4916239;29;20095;-40
2021/06/19 10:56:51;;;;;;;5.45;2.60;;;;;;;20.15;43.85;100751.75;4914859;29;20123;-39
2021/06/19 10:59:29;;;;;;;7.30;2.15;;;;;;;20.22;43.38;100751.69;4916456;29;20044;-39
2021/06/19 11:01:57;;;;;;;3.28;1.80;;;;;;;20.12;43.66;100742.09;4916481;29;20052;-41
2021/06/19 11:04:39;;;;;;;4.22;1.70;;;;;;;20.04;42.67;100744.16;4916195;29;20044;-39
2021/06/19 11:07:32;;;;;;;5.75;1.60;;;;;;;20.09;43.38;100742.13;4915385;29;20040;-41
2021/06/19 11:09:59;;;;;;;;;;;;;;;19.95;43.13;100741.00;4916329;29;20054;-40
2021/06/19 11:12:34;;;;;;;2.33;1.42;;;;;;;19.82;43.25;100756.72;4916097;29;20381;-40
2021/06/19 11:15:04;;;;;;;10.85;4.45;;;;;;;19.86;43.88;100740.63;4910054;29;20484;-39
2021/06/19 11:17:31;;;;;;;20.05;9.50;;;;;;;19.92;43.60;100744.63;4913789;29;20123;-39
2021/06/19 11:20:08;;;;;;;4.60;2.22;;;;;;;19.95;43.36;100748.63;4895059;29;20469;-39
2021/06/19 11:22:43;;;;;;;6.82;1.90;;;;;;;19.85;43.02;100722.19;4920129;29;20090;-39
2021/06/19 11:25:23;;;;;;;6.05;2.25;;;;;;;19.86;43.35;100726.59;4918476;29;20497;-39
2021/06/19 11:27:56;;;;;;;3.35;1.90;;;;;;;19.89;43.18;100714.53;4923029;29;20044;-40
2021/06/19 11:30:35;;;;;;;3.85;1.65;;;;;;;20.06;42.98;100721.28;4915379;29;20052;-41
2021/06/19 11:33:16;;;;;;;7.18;1.67;;;;;;;20.19;43.76;100721.59;4915553;29;20123;-40
2021/06/19 11:35:44;;;;;;;5.15;1.35;;;;;;;20.15;43.79;100723.66;4929084;29;20056;-41